Time;durP1;ratioP1;P1;durP2;ratioP2;P2;SDS_P1;SDS_P2;PMS_P1;PMS_P2;Temp;Humidity;BMP_temperature;BMP_pressure;BME280_temperature;BME280_humidity;BME280_pressure;Samples;Min_cycle;Max_cycle;Signal;HPM_P1;HPM_P2
2022/08/16 00:01:54;;;;;;;19.17;14.13;;;;;;;23.66;59.26;100174.88;5053190;28;20059;-63
2022/08/16 00:04:26;;;;;;;15.45;12.75;;;;;;;23.75;58.61;100174.41;5065470;28;20056;-62
2022/08/16 00:06:54;;;;;;;18.60;13.27;;;;;;;23.75;58.86;100175.22;5051936;28;20056;-63
2022/08/16 00:09:22;;;;;;;18.65;12.68;;;;;;;23.56;59.31;100175.78;5053066;28;20057;-63
2022/08/16 00:11:49;;;;;;;15.52;13.13;;;;;;;23.67;59.24;100178.50;5053995;28;20057;-63
2022/08/16 00:14:25;;;;;;;17.23;13.15;;;;;;;23.75;59.08;100180.03;5053165;28;20064;-63
2022/08/16 00:16:57;;;;;;;17.77;12.45;;;;;;;23.74;59.07;100181.25;5036994;28;20049;-63
2022/08/16 00:19:38;;;;;;;14.18;12.57;;;;;;;23.90;58.42;100185.09;5073621;28;20059;-62
2022/08/16 00:22:09;;;;;;;14.57;12.55;;;;;;;23.78;58.79;100182.81;5065475;28;20053;-63
2022/08/16 00:24:42;;;;;;;19.27;13.93;;;;;;;23.62;59.07;100193.81;5037099;28;20052;-62
2022/08/16 00:27:13;;;;;;;15.27;12.95;;;;;;;23.63;58.95;100194.59;5053901;28;20072;-62
2022/08/16 00:29:41;;;;;;;16.48;12.23;;;;;;;23.55;59.30;100191.06;5053974;28;20056;-63
2022/08/16 00:32:08;;;;;;;15.15;12.77;;;;;;;23.40;59.71;100195.16;5036460;28;20059;-62
2022/08/16 00:34:37;;;;;;;14.88;12.15;;;;;;;23.42;59.81;100195.56;5036731;28;20052;-63
2022/08/16 00:37:22;;;;;;;15.70;12.57;;;;;;;23.57;59.32;100190.63;5051804;28;20076;-62
2022/08/16 00:39:52;;;;;;;17.40;13.00;;;;;;;23.68;59.20;100188.53;5054114;28;20053;-63
2022/08/16 00:42:29;;;;;;;16.35;12.38;;;;;;;23.94;58.08;100194.31;5037054;28;20491;-62
2022/08/16 00:45:42;;;;;;;14.77;12.55;;;;;;;23.33;59.25;100198.03;5052770;28;20045;-64
2022/08/16 00:48:28;;;;;;;16.85;12.35;;;;;;;23.27;59.52;100194.84;5029775;28;20061;-63
2022/08/16 00:51:01;;;;;;;17.90;13.02;;;;;;;23.04;60.83;100182.53;5046627;28;20041;-62
2022/08/16 00:53:31;;;;;;;17.20;12.50;;;;;;;23.01;60.88;100186.94;5051872;28;20052;-61
2022/08/16 00:56:03;;;;;;;15.73;11.65;;;;;;;23.10;60.88;100180.91;5069398;28;20045;-62
2022/08/16 00:58:34;;;;;;;18.75;11.82;;;;;;;23.32;60.01;100174.75;5069063;28;20056;-62
2022/08/16 01:01:03;;;;;;;17.42;12.52;;;;;;;23.41;59.78;100182.72;5051730;28;20045;-62
2022/08/16 01:03:36;;;;;;;12.68;11.35;;;;;;;23.16;60.22;100170.81;5053939;28;20053;-63
2022/08/16 01:06:09;;;;;;;18.38;12.95;;;;;;;23.33;59.83;100173.53;5036421;28;20052;-62
2022/08/16 01:08:58;;;;;;;15.70;12.23;;;;;;;23.26;60.03;100172.75;5021594;28;20429;-62
2022/08/16 01:11:27;;;;;;;15.43;11.70;;;;;;;23.33;59.60;100165.09;5051444;28;20496;-63
2022/08/16 01:14:02;;;;;;;15.85;12.40;;;;;;;23.64;58.94;100163.25;5069370;28;20071;-62
2022/08/16 01:16:29;;;;;;;13.68;12.15;;;;;;;23.66;58.56;100160.03;5056392;28;20059;-63
2022/08/16 01:19:06;;;;;;;14.88;11.90;;;;;;;23.53;59.30;100164.56;5068408;28;20064;-62
2022/08/16 01:21:51;;;;;;;15.02;12.40;;;;;;;23.72;58.73;100169.59;5063345;28;20053;-61
2022/08/16 01:24:35;;;;;;;16.27;12.65;;;;;;;23.69;58.68;100162.81;5041542;28;20100;-62
2022/08/16 01:27:38;;;;;;;20.40;12.25;;;;;;;23.66;58.62;100168.47;5045675;28;20056;-62
2022/08/16 01:30:11;;;;;;;16.05;12.15;;;;;;;23.67;58.99;100167.25;5056182;28;20424;-63
2022/08/16 01:32:48;;;;;;;16.10;12.00;;;;;;;23.64;58.89;100171.69;5053852;28;20045;-63
2022/08/16 01:35:42;;;;;;;16.05;11.73;;;;;;;23.65;59.20;100169.66;5072993;28;20053;-62
2022/08/16 01:38:25;;;;;;;16.38;11.45;;;;;;;23.79;58.70;100164.72;5039326;28;20055;-62
2022/08/16 01:41:06;;;;;;;17.73;12.05;;;;;;;23.71;58.72;100159.59;5055743;28;20060;-62
2022/08/16 01:43:37;;;;;;;16.77;11.40;;;;;;;23.71;58.43;100168.03;5055811;28;20049;-62
2022/08/16 01:46:28;;;;;;;14.80;12.65;;;;;;;23.56;58.83;100166.53;5038619;28;20135;-62
2022/08/16 01:49:38;;;;;;;16.52;11.63;;;;;;;23.61;58.75;100168.91;5067673;28;20532;-62
2022/08/16 01:52:25;;;;;;;16.83;13.02;;;;;;;23.33;59.15;100173.53;5056637;28;20041;-62
2022/08/16 01:55:16;;;;;;;14.57;11.98;;;;;;;23.25;59.72;100168.34;5072297;28;20527;-62
2022/08/16 01:57:43;;;;;;;;;;;;;;;23.51;58.69;100164.97;5072187;28;20053;-62
2022/08/16 02:00:24;;;;;;;13.35;11.32;;;;;;;23.47;58.77;100161.38;5070360;28;19921;-62
2022/08/16 02:02:58;;;;;;;14.77;11.98;;;;;;;23.22;59.64;100167.16;5055845;28;20052;-62
2022/08/16 02:05:25;;;;;;;13.43;11.80;;;;;;;22.98;60.62;100168.09;5054727;28;20636;-62
2022/08/16 02:07:59;;;;;;;14.75;11.75;;;;;;;22.95;60.83;100160.50;5030056;28;20057;-62
2022/08/16 02:10:27;;;;;;;13.80;10.98;;;;;;;23.01;60.57;100161.66;5071358;28;20045;-62
2022/08/16 02:12:55;;;;;;;15.63;10.90;;;;;;;23.32;60.08;100166.31;5071275;28;20045;-63
2022/08/16 02:15:30;;;;;;;17.58;11.63;;;;;;;23.47;59.33;100163.41;5056189;28;20083;-67
2022/08/16 02:18:08;;;;;;;15.90;11.13;;;;;;;23.42;59.02;100157.00;5061983;28;20052;-62
2022/08/16 02:20:41;;;;;;;15.65;11.10;;;;;;;23.54;58.96;100155.69;5055366;28;20049;-68
2022/08/16 02:23:12;;;;;;;16.92;11.65;;;;;;;23.28;59.75;100168.34;5042475;28;20389;-68
2022/08/16 02:25:45;;;;;;;15.77;11.18;;;;;;;23.35;59.54;100159.06;5067760;28;20057;-68
2022/08/16 02:28:20;;;;;;;13.25;11.13;;;;;;;23.41;59.59;100158.22;5037948;28;20056;-69
2022/08/16 02:30:51;;;;;;;15.45;10.85;;;;;;;23.41;59.51;100146.19;5055723;28;20056;-68
2022/08/16 02:33:23;;;;;;;17.98;11.48;;;;;;;23.24;59.92;100135.84;5037845;28;20076;-63
2022/08/16 02:36:17;;;;;;;14.43;10.68;;;;;;;23.18;60.24;100127.06;5071400;28;20052;-63
2022/08/16 02:39:06;;;;;;;13.73;10.57;;;;;;;23.24;60.06;100130.22;5040861;28;20057;-63
2022/08/16 02:41:35;;;;;;;13.75;10.63;;;;;;;23.48;nan;100123.63;5071339;28;20064;-68
2022/08/16 02:44:04;;;;;;;13.38;10.10;;;;;;;23.56;58.99;100113.91;5054541;28;20049;-68
2022/08/16 02:46:32;;;;;;;16.50;11.60;;;;;;;23.44;59.46;100122.84;5055569;28;20538;-68
2022/08/16 02:49:02;;;;;;;12.95;10.73;;;;;;;23.54;58.94;100121.97;5054471;28;20059;-67
2022/08/16 02:51:34;;;;;;;16.60;11.07;;;;;;;23.65;58.83;100128.31;5038608;28;20049;-68
2022/08/16 02:54:03;;;;;;;14.77;10.73;;;;;;;23.64;58.54;100125.91;5037180;28;20052;-68
2022/08/16 02:56:31;;;;;;;15.83;11.73;;;;;;;23.39;59.63;100112.06;5054423;28;20057;-68
2022/08/16 02:58:59;;;;;;;14.13;10.73;;;;;;;23.47;59.46;100101.56;5038051;28;20064;-68
2022/08/16 03:01:30;;;;;;;15.10;11.10;;;;;;;23.32;59.79;100090.44;5036966;28;20053;-68
2022/08/16 03:04:12;;;;;;;14.40;10.88;;;;;;;23.46;59.49;100097.94;5053969;28;20049;-67
2022/08/16 03:07:00;;;;;;;14.15;10.95;;;;;;;23.42;59.52;100097.97;5054094;28;20214;-68
2022/08/16 03:09:40;;;;;;;12.80;11.23;;;;;;;23.56;59.43;100099.03;5070573;28;20518;-62
2022/08/16 03:12:11;;;;;;;13.85;11.05;;;;;;;23.66;59.01;100098.16;5037058;28;20083;-62
2022/08/16 03:14:45;;;;;;;18.02;11.07;;;;;;;23.54;59.44;100101.50;5054033;28;20053;-62
2022/08/16 03:17:14;;;;;;;13.43;11.02;;;;;;;23.34;59.98;100116.09;5054599;28;20056;-62
2022/08/16 03:19:43;;;;;;;16.23;11.57;;;;;;;23.34;60.22;100118.13;5075158;28;20610;-62
2022/08/16 03:22:26;;;;;;;15.52;11.10;;;;;;;23.21;60.93;100117.78;5054013;28;20389;-63
2022/08/16 03:25:06;;;;;;;15.88;10.65;;;;;;;23.28;60.93;100114.16;5070495;28;20060;-63
2022/08/16 03:27:37;;;;;;;13.98;11.95;;;;;;;23.04;61.74;100120.72;5037470;28;20523;-62
2022/08/16 03:30:17;;;;;;;12.93;10.88;;;;;;;23.27;61.46;100116.16;5054404;28;20128;-62
2022/08/16 03:32:50;;;;;;;14.82;11.90;;;;;;;23.37;60.92;100131.34;5036462;28;20408;-62
2022/08/16 03:35:24;;;;;;;20.98;12.32;;;;;;;23.17;61.32;100127.47;5033782;28;20049;-62
2022/08/16 03:38:06;;;;;;;15.00;11.65;;;;;;;23.12;62.04;100130.69;5036698;28;20061;-62
2022/08/16 03:40:56;;;;;;;16.75;11.88;;;;;;;23.29;61.63;100139.03;5053784;28;20049;-61
2022/08/16 03:43:26;;;;;;;15.23;12.65;;;;;;;23.38;61.64;100144.19;5054703;28;20036;-62
2022/08/16 03:46:19;;;;;;;13.45;11.13;;;;;;;23.40;61.19;100138.94;5039910;28;20064;-63
2022/08/16 03:49:09;;;;;;;13.57;12.15;;;;;;;23.07;62.54;100148.00;5053149;28;20420;-62
2022/08/16 03:51:39;;;;;;;14.85;11.90;;;;;;;23.15;62.50;100150.34;5053316;28;20053;-62
2022/08/16 03:54:08;;;;;;;16.17;12.68;;;;;;;23.03;62.97;100150.03;5069890;28;20060;-62
2022/08/16 03:56:41;;;;;;;17.15;12.88;;;;;;;23.07;62.98;100151.59;5037375;28;20053;-62
2022/08/16 03:59:28;;;;;;;18.95;12.32;;;;;;;22.94;63.40;100153.31;5052005;28;20056;-62
2022/08/16 04:02:05;;;;;;;16.35;12.25;;;;;;;22.82;63.65;100141.75;5052821;28;20049;-62
2022/08/16 04:04:50;;;;;;;17.70;11.95;;;;;;;22.61;64.19;100147.47;5038566;28;20049;-62
2022/08/16 04:07:17;;;;;;;16.95;11.18;;;;;;;22.67;64.59;100143.81;5050015;28;20048;-62
2022/08/16 04:09:46;;;;;;;13.93;10.57;;;;;;;22.56;64.50;100156.31;5041811;28;20060;-62
2022/08/16 04:12:14;;;;;;;14.35;10.65;;;;;;;22.91;63.47;100145.69;5053868;28;20048;-62
2022/08/16 04:15:03;;;;;;;15.05;11.07;;;;;;;22.84;63.67;100153.38;5054368;28;20056;-62
2022/08/16 04:17:37;;;;;;;15.82;10.90;;;;;;;22.52;64.62;100147.06;5055414;28;20045;-63
2022/08/16 04:20:07;;;;;;;15.52;11.05;;;;;;;22.92;63.37;100154.91;5058758;28;20056;-62
2022/08/16 04:22:55;;;;;;;;;;;;;;;22.72;63.77;100145.38;5054549;28;20426;-62
2022/08/16 04:25:25;;;;;;;13.18;10.32;;;;;;;22.68;63.94;100147.44;5055860;28;19932;-63
2022/08/16 04:27:52;;;;;;;14.73;10.70;;;;;;;22.68;64.16;100144.63;5054051;28;20061;-62
2022/08/16 04:30:22;;;;;;;14.32;10.07;;;;;;;22.68;64.17;100147.44;5052874;28;20056;-62
2022/08/16 04:33:00;;;;;;;13.93;9.80;;;;;;;22.78;63.83;100149.38;5052812;28;20060;-62
2022/08/16 04:35:33;;;;;;;15.38;10.60;;;;;;;22.66;64.54;100149.84;5052134;28;20056;-62
2022/08/16 04:38:01;;;;;;;11.93;9.85;;;;;;;22.65;64.31;100146.22;5036424;28;20055;-62
2022/08/16 04:40:47;;;;;;;13.82;10.35;;;;;;;22.66;64.18;100150.66;5055884;28;20048;-63
2022/08/16 04:43:17;;;;;;;14.45;10.25;;;;;;;22.84;63.89;100147.75;5035580;28;20064;-62
2022/08/16 04:45:46;;;;;;;13.70;10.05;;;;;;;22.77;63.69;100142.94;5035682;28;20056;-62
2022/08/16 04:48:27;;;;;;;13.00;9.70;;;;;;;22.71;64.11;100146.59;5069369;28;20540;-62
2022/08/16 04:51:03;;;;;;;19.63;10.02;;;;;;;22.81;63.92;100152.16;5073144;28;20528;-62
2022/08/16 04:53:44;;;;;;;;;;;;;;;22.73;63.95;100159.03;5042134;28;20634;-61
2022/08/16 04:56:14;;;;;;;12.13;8.90;;;;;;;22.83;63.67;100152.56;5057052;28;19920;-63
2022/08/16 04:58:43;;;;;;;14.20;9.15;;;;;;;22.94;63.61;100152.50;5073278;28;20063;-63
2022/08/16 05:01:17;;;;;;;12.20;9.25;;;;;;;22.71;64.08;100161.44;5065351;28;20060;-62
2022/08/16 05:03:45;;;;;;;10.85;8.73;;;;;;;22.87;63.85;100163.78;5056303;28;20060;-62
2022/08/16 05:06:31;;;;;;;11.98;9.88;;;;;;;22.37;65.13;100163.16;5056527;28;20057;-62
2022/08/16 05:09:17;;;;;;;14.43;9.00;;;;;;;22.70;64.64;100164.66;5055990;28;20076;-63
2022/08/16 05:11:50;;;;;;;14.55;9.90;;;;;;;22.79;63.94;100177.03;5072639;28;20064;-62
2022/08/16 05:14:17;;;;;;;16.55;9.88;;;;;;;22.55;64.84;100169.53;5039038;28;20079;-63
2022/08/16 05:17:05;;;;;;;11.32;9.23;;;;;;;22.70;64.57;100175.91;5055948;28;20053;-63
2022/08/16 05:19:33;;;;;;;14.90;9.30;;;;;;;22.70;64.78;100182.28;5078265;28;20053;-63
2022/08/16 05:22:14;;;;;;;11.90;8.43;;;;;;;22.87;64.09;100184.25;5072260;28;20074;-62
2022/08/16 05:24:45;;;;;;;14.82;9.15;;;;;;;22.62;64.54;100188.34;5071702;28;20384;-62
2022/08/16 05:27:13;;;;;;;14.00;9.05;;;;;;;22.77;64.45;100190.69;5057444;28;20049;-62
2022/08/16 05:29:40;;;;;;;11.00;8.75;;;;;;;23.04;63.70;100185.34;5055523;28;20052;-61
2022/08/16 05:32:29;;;;;;;14.50;8.27;;;;;;;23.04;63.38;100194.56;5059157;28;20055;-62
2022/08/16 05:35:03;;;;;;;13.70;8.85;;;;;;;22.90;63.44;100196.66;5056363;28;20037;-62
2022/08/16 05:37:34;;;;;;;13.60;8.68;;;;;;;22.93;63.47;100193.81;5055649;28;20064;-61
2022/08/16 05:40:09;;;;;;;14.05;8.55;;;;;;;23.22;62.26;100195.25;5037855;28;20056;-62
2022/08/16 05:42:40;;;;;;;11.73;7.72;;;;;;;23.01;62.41;100188.97;5062059;28;20492;-62
2022/08/16 05:45:16;;;;;;;11.15;7.45;;;;;;;22.87;62.99;100195.47;5071775;28;20052;-62
2022/08/16 05:47:55;;;;;;;12.95;7.28;;;;;;;22.84;63.02;100198.31;5035928;28;20054;-62
2022/08/16 05:50:33;;;;;;;12.55;7.90;;;;;;;22.98;62.61;100193.41;5054332;28;20049;-62
2022/08/16 05:53:02;;;;;;;9.65;7.45;;;;;;;23.15;62.22;100202.94;5084287;28;20513;-62
2022/08/16 05:55:35;;;;;;;13.35;7.63;;;;;;;23.09;62.47;100199.75;5055475;28;20163;-68
2022/08/16 05:58:07;;;;;;;11.15;6.93;;;;;;;23.06;61.99;100199.78;5054804;28;20045;-67
2022/08/16 06:00:35;;;;;;;12.30;8.50;;;;;;;23.06;62.25;100206.22;5054165;28;20052;-67
2022/08/16 06:03:03;;;;;;;11.65;7.78;;;;;;;23.05;62.27;100209.41;5055535;28;20068;-67
2022/08/16 06:06:05;;;;;;;15.05;7.13;;;;;;;23.02;62.33;100213.03;5055175;28;20060;-68
2022/08/16 06:08:36;;;;;;;16.48;7.95;;;;;;;23.33;61.36;100210.06;5043572;28;20052;-67
2022/08/16 06:11:09;;;;;;;12.68;8.05;;;;;;;23.34;60.98;100217.28;5062790;28;20052;-67
2022/08/16 06:13:42;;;;;;;14.68;9.05;;;;;;;23.08;62.31;100217.03;5051947;28;20052;-67
2022/08/16 06:16:14;;;;;;;17.55;8.80;;;;;;;23.18;62.22;100218.97;5053417;28;20049;-67
2022/08/16 06:18:45;;;;;;;17.15;11.35;;;;;;;23.05;62.72;100221.44;5075948;28;20053;-68
2022/08/16 06:21:13;;;;;;;22.00;13.05;;;;;;;23.07;62.87;100221.03;5072079;28;20048;-68
2022/08/16 06:23:51;;;;;;;17.85;9.50;;;;;;;23.37;62.36;100218.47;5056126;28;20053;-69
2022/08/16 06:26:21;;;;;;;14.33;10.40;;;;;;;23.49;62.00;100217.19;5052286;28;20504;-67
2022/08/16 06:28:49;;;;;;;16.20;8.90;;;;;;;23.24;62.62;100223.75;5035297;28;20117;-68
2022/08/16 06:31:25;;;;;;;22.90;9.15;;;;;;;23.72;61.52;100229.47;5070135;28;20048;-68
2022/08/16 06:33:54;;;;;;;25.73;9.60;;;;;;;23.78;61.16;100224.22;5071575;28;20049;-67
2022/08/16 06:36:22;;;;;;;23.65;10.07;;;;;;;23.85;60.73;100226.97;5066480;28;20056;-68
2022/08/16 06:39:19;;;;;;;17.05;8.93;;;;;;;23.93;60.59;100217.25;5050259;28;20057;-69
2022/08/16 06:41:57;;;;;;;19.85;8.52;;;;;;;24.03;60.19;100208.75;5069936;28;20049;-69
2022/08/16 06:44:43;;;;;;;33.63;9.35;;;;;;;24.11;60.33;100213.06;5052618;28;20048;-69
2022/08/16 06:47:27;;;;;;;50.58;17.70;;;;;;;23.98;60.47;100217.59;5064916;28;20058;-69
2022/08/16 06:50:15;;;;;;;19.48;8.25;;;;;;;23.92;60.19;100224.09;5033328;28;20483;-69
2022/08/16 06:52:56;;;;;;;62.22;12.30;;;;;;;24.09;59.90;100225.97;5067522;28;20049;-66
2022/08/16 06:55:39;;;;;;;33.30;9.52;;;;;;;24.03;59.87;100222.00;5061819;28;20048;-67
2022/08/16 06:58:10;;;;;;;29.65;10.68;;;;;;;24.32;59.46;100217.72;5068018;28;20049;-67
2022/08/16 07:01:03;;;;;;;43.58;21.45;;;;;;;24.31;59.02;100218.91;5039963;28;20049;-68
2022/08/16 07:03:43;;;;;;;34.83;11.93;;;;;;;24.40;58.89;100219.22;5054442;28;20041;-70
2022/08/16 07:06:26;;;;;;;18.65;9.43;;;;;;;24.24;59.23;100225.41;5065370;28;20049;-71
2022/08/16 07:08:59;;;;;;;13.40;8.20;;;;;;;24.11;59.44;100221.50;5050644;28;20060;-72
2022/08/16 07:11:32;;;;;;;22.30;8.93;;;;;;;24.27;59.09;100218.13;5046616;28;20056;-72
2022/08/16 07:14:17;;;;;;;57.47;10.38;;;;;;;24.36;58.93;100227.72;5044122;28;20436;-71
2022/08/16 07:16:53;;;;;;;25.73;9.25;;;;;;;24.29;58.99;100239.03;5053239;28;20044;-72
2022/08/16 07:19:21;;;;;;;23.00;9.10;;;;;;;24.13;59.35;100229.56;5051490;28;20041;-72
2022/08/16 07:22:08;;;;;;;26.05;9.18;;;;;;;24.38;59.41;100225.28;5025286;28;20404;-71
2022/08/16 07:24:55;;;;;;;14.80;8.10;;;;;;;24.12;59.63;100228.75;5063084;28;20060;-72
2022/08/16 07:27:23;;;;;;;18.90;8.77;;;;;;;24.10;59.92;100228.38;5021119;28;20040;-72
2022/08/16 07:29:51;;;;;;;20.33;8.65;;;;;;;24.17;59.93;100241.56;5047815;28;20053;-72
2022/08/16 07:32:22;;;;;;;19.75;9.40;;;;;;;23.94;60.18;100233.72;5050403;28;20060;-73
2022/08/16 07:34:57;;;;;;;37.67;11.85;;;;;;;24.19;59.86;100234.31;5042616;28;20045;-71
2022/08/16 07:37:26;;;;;;;81.53;16.48;;;;;;;24.57;58.85;100237.13;5045974;28;20049;-72
2022/08/16 07:40:06;;;;;;;25.70;9.45;;;;;;;24.25;59.58;100243.91;5050627;28;20053;-71
2022/08/16 07:42:41;;;;;;;17.17;8.63;;;;;;;24.10;60.17;100241.63;5062129;28;20052;-69
2022/08/16 07:45:09;;;;;;;139.82;22.58;;;;;;;24.35;59.24;100245.81;5051532;28;20052;-70
2022/08/16 07:47:41;;;;;;;39.05;12.18;;;;;;;24.28;59.76;100245.09;5062990;28;20056;-70
2022/08/16 07:50:12;;;;;;;14.93;8.43;;;;;;;24.23;59.75;100248.34;5062617;28;20067;-70
2022/08/16 07:53:00;;;;;;;31.13;9.93;;;;;;;24.32;59.21;100249.47;5036195;28;20064;-70
2022/08/16 07:55:29;;;;;;;26.58;9.60;;;;;;;24.44;59.21;100248.94;5049832;28;20556;-70
2022/08/16 07:58:17;;;;;;;24.92;8.63;;;;;;;24.35;59.07;100239.38;5040007;28;20456;-70
2022/08/16 08:01:07;;;;;;;24.80;9.15;;;;;;;24.43;58.77;100236.06;5049748;28;20053;-72
2022/08/16 08:03:44;;;;;;;28.55;12.27;;;;;;;24.43;59.29;100249.34;5049708;28;20075;-70
2022/08/16 08:06:21;;;;;;;24.88;10.30;;;;;;;24.27;59.18;100241.47;5064565;28;20044;-70
2022/08/16 08:08:51;;;;;;;18.55;11.27;;;;;;;24.52;58.57;100241.22;5063765;28;20405;-72
2022/08/16 08:11:26;;;;;;;24.67;11.65;;;;;;;24.53;58.88;100249.25;5066534;28;20052;-70
2022/08/16 08:14:01;;;;;;;24.95;10.93;;;;;;;24.80;58.12;100246.56;5067057;28;20053;-70
2022/08/16 08:16:37;;;;;;;;;;;;;;;24.91;57.66;100237.97;5046128;28;20056;-70
2022/08/16 08:19:17;;;;;;;74.97;17.75;;;;;;;24.95;58.07;100244.38;5064032;28;19925;-71
2022/08/16 08:21:48;;;;;;;32.13;10.75;;;;;;;24.92;57.23;100248.81;5044518;28;20051;-71
2022/08/16 08:24:47;;;;;;;17.33;9.60;;;;;;;24.85;57.74;100243.25;5062413;28;20386;-70
2022/08/16 08:27:15;;;;;;;21.08;9.45;;;;;;;24.96;57.58;100243.13;5052450;28;20061;-72
2022/08/16 08:29:51;;;;;;;22.55;9.38;;;;;;;24.99;57.48;100245.09;5051080;28;20578;-72
2022/08/16 08:32:40;;;;;;;13.32;7.63;;;;;;;25.17;56.87;100248.50;5057170;28;20061;-72
2022/08/16 08:35:33;;;;;;;16.35;7.75;;;;;;;25.32;56.59;100252.72;5065558;28;20382;-72
2022/08/16 08:38:01;;;;;;;33.70;10.10;;;;;;;25.44;55.75;100252.16;5045244;28;20049;-71
2022/08/16 08:40:32;;;;;;;17.38;7.40;;;;;;;24.93;56.52;100249.63;5050602;28;20052;-70
2022/08/16 08:43:00;;;;;;;25.25;8.60;;;;;;;25.29;55.72;100262.03;5066794;28;20456;-71
2022/08/16 08:45:40;;;;;;;17.35;7.55;;;;;;;25.09;56.04;100261.09;5050631;28;20051;-71
2022/08/16 08:48:20;;;;;;;34.30;8.60;;;;;;;25.41;54.96;100256.66;5049813;28;20056;-70
2022/08/16 08:51:06;;;;;;;19.38;6.30;;;;;;;25.41;54.91;100253.81;5034660;28;20041;-71
2022/08/16 08:53:42;;;;;;;12.10;6.43;;;;;;;25.55;54.23;100250.78;5051693;28;20075;-71
2022/08/16 08:56:11;;;;;;;14.52;6.68;;;;;;;25.58;54.26;100246.31;5051497;28;20044;-72
2022/08/16 08:58:55;;;;;;;28.15;6.72;;;;;;;25.72;53.92;100259.41;5049458;28;20539;-71
2022/08/16 09:01:36;;;;;;;18.45;8.63;;;;;;;26.06;52.26;100252.41;5065022;28;20056;-71
2022/08/16 09:04:26;;;;;;;14.27;6.40;;;;;;;26.06;52.56;100260.91;5037932;28;20045;-71
2022/08/16 09:06:55;;;;;;;20.85;7.43;;;;;;;25.82;53.11;100256.41;5040805;28;20607;-70
2022/08/16 09:09:25;;;;;;;17.15;6.28;;;;;;;25.34;54.34;100267.19;5031850;28;20041;-71
2022/08/16 09:12:03;;;;;;;24.20;6.90;;;;;;;25.68;53.29;100265.13;5065017;28;20052;-71
2022/08/16 09:14:55;;;;;;;16.90;6.63;;;;;;;25.72;53.84;100265.06;5049451;28;20064;-70
2022/08/16 09:17:27;;;;;;;21.10;7.40;;;;;;;26.08;52.48;100268.94;5045157;28;20042;-70
2022/08/16 09:20:15;;;;;;;30.23;8.20;;;;;;;26.10;52.09;100272.91;5034605;28;20050;-70
2022/08/16 09:22:43;;;;;;;32.65;8.43;;;;;;;26.24;51.59;100269.84;5032136;28;20064;-71
2022/08/16 09:25:20;;;;;;;33.42;10.63;;;;;;;26.33;51.61;100280.56;5049580;28;20068;-71
2022/08/16 09:28:01;;;;;;;24.50;7.85;;;;;;;26.57;50.92;100280.13;5041406;28;20067;-71
2022/08/16 09:30:42;;;;;;;16.70;6.45;;;;;;;26.70;50.03;100285.97;5049093;28;20053;-72
2022/08/16 09:33:11;;;;;;;18.48;7.32;;;;;;;26.74;50.70;100283.88;5050873;28;20049;-70
2022/08/16 09:35:40;;;;;;;16.40;6.70;;;;;;;26.85;49.66;100280.84;5048678;28;20063;-70
2022/08/16 09:38:11;;;;;;;14.50;6.43;;;;;;;26.76;50.67;100281.44;5054403;28;20326;-70
2022/08/16 09:40:57;;;;;;;10.95;6.40;;;;;;;27.12;49.34;100281.47;5051922;28;20303;-69
2022/08/16 09:43:25;;;;;;;34.63;22.40;;;;;;;26.82;49.76;100278.88;5048686;28;20512;-71
2022/08/16 09:46:13;;;;;;;30.27;14.00;;;;;;;27.06;49.16;100284.03;5052786;28;20040;-70
2022/08/16 09:49:00;;;;;;;18.75;9.45;;;;;;;27.26;48.51;100281.19;5053725;28;20079;-70
2022/08/16 09:51:30;;;;;;;14.48;5.88;;;;;;;27.15;48.83;100281.41;5055620;28;20060;-71
2022/08/16 09:54:04;;;;;;;14.00;6.35;;;;;;;27.24;48.12;100272.34;5054769;28;20061;-71
2022/08/16 09:56:38;;;;;;;14.27;7.40;;;;;;;27.23;48.64;100268.69;5038383;28;20045;-71
2022/08/16 09:59:22;;;;;;;20.75;7.00;;;;;;;27.27;48.64;100263.78;5054764;28;20060;-69
2022/08/16 10:01:52;;;;;;;17.83;5.88;;;;;;;27.35;48.36;100276.56;5047656;28;20076;-69
2022/08/16 10:04:21;;;;;;;11.05;5.70;;;;;;;27.37;47.98;100274.09;5056803;28;20060;-71
2022/08/16 10:06:59;;;;;;;15.05;6.05;;;;;;;27.40;48.16;100281.72;5048772;28;20619;-74
2022/08/16 10:09:32;;;;;;;14.05;5.63;;;;;;;27.57;47.66;100274.03;5055236;28;20065;-71
2022/08/16 10:14:59;;;;;;;13.35;6.18;;;;;;;27.72;47.69;100278.16;5052407;28;20064;-70
2022/08/16 10:17:28;;;;;;;11.23;5.80;;;;;;;27.42;47.73;100272.78;5056027;28;20064;-70
2022/08/16 10:19:55;;;;;;;12.40;5.47;;;;;;;27.37;48.10;100267.66;5054483;28;20052;-71
2022/08/16 10:22:23;;;;;;;12.23;5.97;;;;;;;27.19;48.66;100284.16;5053325;28;20056;-71
2022/08/16 10:24:50;;;;;;;11.55;5.97;;;;;;;27.34;48.53;100277.00;5054253;28;20052;-71
2022/08/16 10:27:26;;;;;;;16.52;7.28;;;;;;;27.44;48.68;100275.97;5055012;28;20049;-71
2022/08/16 10:30:15;;;;;;;12.73;7.35;;;;;;;27.51;47.98;100278.66;5038960;28;20049;-71
2022/08/16 10:32:54;;;;;;;18.70;8.73;;;;;;;27.42;48.00;100278.44;5055502;28;20425;-71
2022/08/16 10:35:22;;;;;;;12.38;6.28;;;;;;;27.37;47.85;100281.78;5048270;28;20527;-71
2022/08/16 10:37:59;;;;;;;16.38;10.93;;;;;;;27.32;48.64;100285.13;5050422;28;20053;-72
2022/08/16 10:40:26;;;;;;;16.27;10.07;;;;;;;27.35;48.51;100284.25;5054290;28;20044;-71
2022/08/16 10:42:58;;;;;;;9.43;6.32;;;;;;;26.94;49.05;100284.69;5049298;28;20053;-70
2022/08/16 10:45:27;;;;;;;;;;;;;;;26.95;49.43;100280.63;5054916;28;20049;-72
2022/08/16 10:47:55;;;;;;;11.80;7.68;;;;;;;27.04;49.07;100274.41;5051745;28;19931;-71
2022/08/16 10:50:31;;;;;;;14.38;6.78;;;;;;;27.17;48.57;100276.13;5047862;28;20045;-70
2022/08/16 10:52:59;;;;;;;12.25;6.18;;;;;;;27.38;48.41;100277.72;5053359;28;20063;-71
2022/08/16 10:55:37;;;;;;;19.58;11.35;;;;;;;27.35;48.36;100279.41;5057815;28;20040;-72
2022/08/16 10:58:13;;;;;;;19.97;9.37;;;;;;;27.28;48.38;100281.56;5053300;28;20515;-70
2022/08/16 11:00:44;;;;;;;13.45;6.45;;;;;;;27.66;48.15;100291.22;5049760;28;20045;-71
2022/08/16 11:03:13;;;;;;;11.63;6.55;;;;;;;27.78;47.69;100287.69;5054007;28;20088;-71
2022/08/16 11:06:03;;;;;;;13.35;5.78;;;;;;;27.80;47.46;100290.09;5042387;28;20052;-70
2022/08/16 11:08:35;;;;;;;15.00;5.88;;;;;;;27.57;47.80;100286.16;5049270;28;20614;-68
2022/08/16 11:11:07;;;;;;;15.25;5.78;;;;;;;27.49;48.05;100292.44;5054305;28;20496;-68
2022/08/16 11:13:45;;;;;;;18.17;7.10;;;;;;;27.85;47.63;100289.56;5050069;28;20057;-69
2022/08/16 11:16:33;;;;;;;20.92;7.30;;;;;;;27.93;47.59;100291.81;5035166;28;20075;-68
2022/08/16 11:19:20;;;;;;;20.63;10.70;;;;;;;28.14;46.18;100282.78;5049436;28;20064;-69
2022/08/16 11:21:49;;;;;;;14.45;5.68;;;;;;;27.86;46.58;100277.78;5054397;28;20060;-69
2022/08/16 11:24:39;;;;;;;12.80;5.80;;;;;;;27.67;46.88;100289.97;5067149;28;20059;-68
2022/08/16 11:27:15;;;;;;;11.43;5.63;;;;;;;27.71;46.82;100288.66;5053737;28;20048;-72
2022/08/16 11:29:54;;;;;;;19.77;6.05;;;;;;;27.52;47.14;100291.53;5086120;28;20514;-71
2022/08/16 11:32:24;;;;;;;20.00;6.32;;;;;;;27.66;47.20;100286.38;5051719;28;20444;-70
2022/08/16 11:35:11;;;;;;;18.80;6.30;;;;;;;27.70;46.86;100283.44;5051790;28;20533;-69
2022/08/16 11:38:04;;;;;;;19.30;5.53;;;;;;;27.39;47.28;100276.50;5052936;28;20595;-70
2022/08/16 11:40:57;;;;;;;25.42;11.68;;;;;;;27.79;47.35;100283.66;5050288;28;20041;-70
2022/08/16 11:43:34;;;;;;;22.60;12.05;;;;;;;28.08;46.51;100286.59;5051790;28;20045;-71
2022/08/16 11:46:09;;;;;;;35.83;11.10;;;;;;;27.81;46.74;100291.69;5048415;28;20049;-71
2022/08/16 11:48:57;;;;;;;13.57;6.72;;;;;;;27.68;46.32;100291.59;5049954;28;20072;-72
2022/08/16 11:51:24;;;;;;;9.35;5.28;;;;;;;27.67;45.95;100295.63;5055746;28;20059;-69
2022/08/16 11:53:51;;;;;;;18.25;5.95;;;;;;;27.73;46.50;100288.22;5060166;28;20496;-68
2022/08/16 11:56:19;;;;;;;8.93;5.05;;;;;;;27.78;46.09;100282.03;5045220;28;20050;-69
2022/08/16 11:59:07;;;;;;;11.35;5.75;;;;;;;27.66;46.00;100277.06;5056465;28;20511;-69